Time;durP1;ratioP1;P1;durP2;ratioP2;P2;SDS_P1;SDS_P2;PMS_P1;PMS_P2;Temp;Humidity;BMP_temperature;BMP_pressure;BME280_temperature;BME280_humidity;BME280_pressure;Samples;Min_cycle;Max_cycle;Signal;HPM_P1;HPM_P2
2021/07/29 00:00:06;;;;;;;26.42;10.45;;;;;;;21.80;67.68;95126.09;5113875;27;20062;-74
2021/07/29 00:02:33;;;;;;;22.20;11.20;;;;;;;21.62;69.93;95119.81;5110984;28;20093;-74
2021/07/29 00:05:01;;;;;;;27.20;11.20;;;;;;;21.27;72.69;95124.66;5110759;28;20071;-74
2021/07/29 00:07:27;;;;;;;22.75;12.25;;;;;;;21.36;71.05;95123.69;5115066;27;20063;-73
2021/07/29 00:09:55;;;;;;;27.60;11.70;;;;;;;21.38;70.97;95131.34;5113056;27;20550;-74
2021/07/29 00:12:21;;;;;;;19.63;11.27;;;;;;;21.34;71.04;95125.06;5113403;27;20042;-74
2021/07/29 00:14:50;;;;;;;26.42;11.90;;;;;;;21.34;70.45;95130.34;5113250;27;20035;-73
2021/07/29 00:20:06;;;;;;;27.67;11.45;;;;;;;21.36;69.33;95139.56;5088911;27;20525;-73
2021/07/29 00:22:33;;;;;;;25.90;10.50;;;;;;;21.34;69.35;95130.34;5109394;27;20035;-74
2021/07/29 00:25:00;;;;;;;23.00;12.32;;;;;;;21.30;69.72;95135.44;5110130;28;20040;-73
2021/07/29 00:27:27;;;;;;;35.47;11.52;;;;;;;21.25;69.58;95126.78;5110422;27;20044;-73
2021/07/29 00:29:56;;;;;;;24.95;11.73;;;;;;;21.20;69.87;95136.41;5110977;27;20154;-73
2021/07/29 00:32:23;;;;;;;27.17;10.65;;;;;;;21.12;70.43;95131.78;5112464;27;20424;-74
2021/07/29 00:34:49;;;;;;;26.10;11.70;;;;;;;21.03;69.81;95128.22;5111761;27;20040;-73
2021/07/29 00:37:16;;;;;;;30.60;11.35;;;;;;;20.96;69.89;95103.97;5113489;27;20497;-74
2021/07/29 00:39:43;;;;;;;26.95;10.75;;;;;;;21.01;70.06;95117.09;5116551;27;20051;-74
2021/07/29 00:42:10;;;;;;;24.65;11.57;;;;;;;21.02;69.14;95113.41;5110012;27;20092;-74
2021/07/29 00:44:38;;;;;;;43.15;11.18;;;;;;;20.99;69.42;95120.06;5114044;27;20039;-74
2021/07/29 00:47:06;;;;;;;28.58;12.15;;;;;;;20.91;70.92;95122.59;5108965;28;20063;-74
2021/07/29 00:49:36;;;;;;;25.00;10.75;;;;;;;20.79;70.45;95102.63;5111219;27;20036;-74
2021/07/29 00:52:03;;;;;;;21.52;10.43;;;;;;;20.87;70.71;95117.09;5114425;27;20043;-73
2021/07/29 00:54:30;;;;;;;23.10;10.90;;;;;;;20.87;70.64;95116.28;5112708;27;20520;-72
2021/07/29 00:56:57;;;;;;;27.10;11.20;;;;;;;20.81;71.19;95113.72;5111050;27;20048;-73
2021/07/29 00:59:24;;;;;;;24.92;12.07;;;;;;;20.83;71.01;95120.59;5112412;27;20044;-73
2021/07/29 01:01:51;;;;;;;28.67;10.93;;;;;;;20.62;73.35;95105.03;5112661;27;20050;-72
2021/07/29 01:04:18;;;;;;;41.30;12.93;;;;;;;20.49;73.61;95111.00;5093601;28;20032;-73
2021/07/29 01:06:45;;;;;;;28.50;12.02;;;;;;;20.44;74.06;95115.28;5110076;27;20059;-73
2021/07/29 01:09:12;;;;;;;38.13;12.40;;;;;;;20.41;73.89;95121.16;5109875;28;20036;-73
2021/07/29 01:11:41;;;;;;;25.05;11.93;;;;;;;20.35;74.64;95117.00;5111442;27;20463;-73
2021/07/29 01:14:08;;;;;;;29.13;12.93;;;;;;;20.27;74.43;95115.00;5110140;27;20047;-73
2021/07/29 01:16:36;;;;;;;29.98;12.20;;;;;;;20.26;75.05;95108.16;5111262;27;20067;-73
2021/07/29 01:19:05;;;;;;;29.65;12.20;;;;;;;20.31;74.06;95094.84;5112653;27;20047;-73
2021/07/29 01:21:50;;;;;;;30.75;13.60;;;;;;;20.25;75.94;95101.28;5112698;27;20035;-73
2021/07/29 01:24:16;;;;;;;38.20;12.90;;;;;;;20.20;74.85;95098.69;5111711;27;20040;-73
2021/07/29 01:26:43;;;;;;;34.67;14.13;;;;;;;20.16;77.16;95097.69;5112044;27;20040;-73
2021/07/29 01:29:10;;;;;;;35.17;15.40;;;;;;;20.27;75.56;95096.47;5091396;28;20058;-73
2021/07/29 01:31:37;;;;;;;29.67;13.15;;;;;;;20.38;74.03;95100.56;5113106;27;20040;-74
2021/07/29 01:34:05;;;;;;;39.20;16.13;;;;;;;20.47;73.49;95091.97;5113060;27;20058;-73
2021/07/29 01:36:32;;;;;;;29.45;14.10;;;;;;;20.54;73.32;95081.81;5112366;27;20497;-74
2021/07/29 01:39:00;;;;;;;32.90;13.77;;;;;;;20.51;73.43;95066.50;5109635;28;20043;-73
2021/07/29 01:41:28;;;;;;;25.80;13.27;;;;;;;20.57;73.80;95070.66;5112695;27;20039;-74
2021/07/29 01:43:54;;;;;;;33.17;12.32;;;;;;;20.67;73.70;95069.75;5107768;27;20047;-74
2021/07/29 01:46:21;;;;;;;31.90;13.57;;;;;;;20.33;76.16;95068.09;5112531;27;20051;-74
2021/07/29 01:48:48;;;;;;;30.17;13.43;;;;;;;20.14;75.71;95068.13;5111706;27;20569;-73
2021/07/29 01:51:15;;;;;;;31.75;13.45;;;;;;;19.99;74.63;95066.47;5112428;27;20043;-73
2021/07/29 01:53:42;;;;;;;33.85;11.15;;;;;;;20.01;74.29;95062.44;5110716;27;20039;-73
2021/07/29 01:56:09;;;;;;;26.05;11.00;;;;;;;20.02;72.67;95061.41;5110189;27;20039;-73
2021/07/29 01:58:36;;;;;;;27.73;10.35;;;;;;;20.09;71.70;95049.66;5090175;28;20035;-73
2021/07/29 02:01:03;;;;;;;23.55;10.27;;;;;;;20.31;71.19;95052.53;5109652;27;20676;-73
2021/07/29 02:03:30;;;;;;;29.90;10.25;;;;;;;20.31;69.03;95063.13;5107569;27;20040;-74
2021/07/29 02:06:02;;;;;;;28.55;11.00;;;;;;;20.35;69.48;95071.28;5108010;27;20052;-74
2021/07/29 02:08:28;;;;;;;32.80;10.57;;;;;;;20.40;69.11;95065.88;5106987;27;20054;-74
2021/07/29 02:11:03;;;;;;;26.55;10.52;;;;;;;20.47;68.54;95070.81;5107200;27;20054;-74
2021/07/29 02:13:29;;;;;;;37.15;12.35;;;;;;;20.25;69.75;95074.81;5110686;27;20469;-74
2021/07/29 02:15:56;;;;;;;32.20;10.38;;;;;;;20.26;70.73;95073.75;5109452;27;20040;-74
2021/07/29 02:18:23;;;;;;;36.22;11.25;;;;;;;20.02;71.74;95071.97;5109321;27;20063;-73
2021/07/29 02:20:50;;;;;;;39.63;12.73;;;;;;;20.04;71.19;95075.13;5109275;27;20047;-74
2021/07/29 02:23:16;;;;;;;26.83;10.93;;;;;;;20.13;72.14;95071.81;5108053;28;20065;-74
2021/07/29 02:25:44;;;;;;;38.60;12.15;;;;;;;19.85;73.73;95061.09;5108205;27;20132;-73
2021/07/29 02:28:10;;;;;;;26.95;12.25;;;;;;;19.77;74.69;95053.78;5113955;27;20433;-74
2021/07/29 02:30:37;;;;;;;25.60;12.95;;;;;;;19.92;74.33;95061.53;5108972;27;20040;-73
2021/07/29 02:33:04;;;;;;;25.13;11.35;;;;;;;19.95;73.93;95055.69;5092185;28;20058;-74
2021/07/29 02:35:31;;;;;;;29.83;10.73;;;;;;;19.97;74.27;95058.81;5107847;27;20481;-74
2021/07/29 02:37:58;;;;;;;26.55;11.35;;;;;;;20.01;73.72;95065.09;5110439;27;20044;-73
2021/07/29 02:40:25;;;;;;;19.92;11.70;;;;;;;19.89;75.03;95066.59;5107966;28;20043;-73
2021/07/29 02:42:52;;;;;;;26.13;12.48;;;;;;;20.01;74.62;95065.09;5110334;27;20036;-74
2021/07/29 02:45:18;;;;;;;29.45;11.32;;;;;;;20.14;74.12;95068.13;5108701;27;20454;-73
2021/07/29 02:47:45;;;;;;;35.42;14.15;;;;;;;20.22;73.75;95067.47;5107239;28;20109;-74
2021/07/29 02:50:12;;;;;;;25.25;12.40;;;;;;;20.29;74.07;95059.16;5110478;27;20089;-75
2021/07/29 02:52:38;;;;;;;28.20;13.23;;;;;;;20.36;73.78;95067.53;5110189;27;20050;-74
2021/07/29 02:55:06;;;;;;;24.10;11.55;;;;;;;20.40;73.47;95066.69;5109933;27;20540;-74
2021/07/29 02:57:32;;;;;;;33.20;11.88;;;;;;;20.38;73.65;95074.13;5108724;27;20508;-74
2021/07/29 02:59:59;;;;;;;30.50;13.25;;;;;;;20.40;72.91;95073.81;5109920;27;20051;-73
2021/07/29 03:02:26;;;;;;;32.30;11.93;;;;;;;20.44;72.62;95067.69;5108759;27;20039;-74
2021/07/29 03:04:53;;;;;;;30.75;11.65;;;;;;;20.54;72.14;95072.00;5110228;27;20043;-73
2021/07/29 03:07:20;;;;;;;29.65;10.48;;;;;;;20.61;72.59;95079.63;5110073;27;20039;-73
2021/07/29 03:09:46;;;;;;;35.40;12.77;;;;;;;20.60;71.93;95078.03;5108848;27;20472;-74
2021/07/29 03:12:13;;;;;;;27.67;12.82;;;;;;;20.62;71.63;95070.63;5110681;27;20110;-74
2021/07/29 03:14:40;;;;;;;29.35;11.38;;;;;;;20.67;71.52;95073.19;5107626;28;20043;-74
2021/07/29 03:17:07;;;;;;;32.45;11.45;;;;;;;20.73;70.67;95074.69;5108176;27;20058;-75
2021/07/29 03:19:34;;;;;;;27.15;11.43;;;;;;;20.79;70.66;95085.97;5109372;27;20063;-74
2021/07/29 03:22:01;;;;;;;27.08;11.80;;;;;;;20.80;71.39;95080.38;5109188;27;20108;-74
2021/07/29 03:24:27;;;;;;;37.47;11.52;;;;;;;20.68;71.88;95061.53;5110658;27;20042;-74
2021/07/29 03:26:54;;;;;;;30.05;12.77;;;;;;;20.83;71.18;95083.53;5108408;27;21799;-74
2021/07/29 03:29:27;;;;;;;25.08;11.65;;;;;;;20.87;71.50;95084.50;5106730;28;20048;-74
2021/07/29 03:31:54;;;;;;;30.52;11.63;;;;;;;20.96;70.69;95080.94;5108514;28;20117;-74
2021/07/29 03:34:21;;;;;;;24.10;11.35;;;;;;;20.99;70.99;95076.91;5108574;28;20562;-74
2021/07/29 03:36:48;;;;;;;24.23;11.88;;;;;;;21.00;71.31;95075.84;5091663;28;20059;-74
2021/07/29 03:39:14;;;;;;;31.05;11.13;;;;;;;20.91;71.00;95080.22;5111484;28;20046;-74
2021/07/29 03:41:41;;;;;;;30.75;11.55;;;;;;;20.87;71.82;95081.88;5108659;28;20038;-74
2021/07/29 03:44:08;;;;;;;24.73;10.15;;;;;;;20.81;72.54;95078.53;5108330;28;22056;-74
2021/07/29 03:46:35;;;;;;;27.80;11.77;;;;;;;20.79;72.53;95078.81;5106289;28;20055;-74
2021/07/29 03:49:01;;;;;;;29.65;10.98;;;;;;;20.79;73.03;95075.38;5106977;28;20051;-74
2021/07/29 03:51:28;;;;;;;52.53;14.13;;;;;;;20.78;72.81;95071.94;5107195;28;20047;-74
2021/07/29 03:53:55;;;;;;;42.13;13.43;;;;;;;20.79;72.54;95078.81;5109900;28;20060;-74
2021/07/29 03:56:22;;;;;;;29.88;12.00;;;;;;;20.86;72.50;95072.38;5108090;28;20043;-74
2021/07/29 03:58:48;;;;;;;38.15;13.15;;;;;;;20.91;71.92;95064.34;5106730;28;20036;-74
2021/07/29 04:01:17;;;;;;;29.35;11.48;;;;;;;21.05;70.07;95070.47;5111332;28;20100;-74
2021/07/29 04:03:46;;;;;;;30.33;11.93;;;;;;;21.09;70.58;95066.16;5106955;28;20070;-74
2021/07/29 04:06:17;;;;;;;23.88;11.38;;;;;;;21.25;69.36;95079.09;5090621;28;20039;-74
2021/07/29 04:08:44;;;;;;;36.10;10.48;;;;;;;21.33;69.38;95071.28;5108938;28;20057;-74
2021/07/29 04:11:11;;;;;;;35.03;12.02;;;;;;;21.44;69.32;95071.88;5109602;28;20461;-73
2021/07/29 04:13:38;;;;;;;39.13;11.80;;;;;;;21.39;68.79;95069.31;5108248;28;20871;-73
2021/07/29 04:16:05;;;;;;;34.53;11.57;;;;;;;21.49;68.87;95079.75;5106684;28;20039;-73
2021/07/29 04:18:32;;;;;;;33.33;11.38;;;;;;;21.31;69.86;95080.59;5108243;28;20043;-74
2021/07/29 04:20:59;;;;;;;29.85;13.30;;;;;;;21.15;71.57;95086.16;5107886;28;20115;-73
2021/07/29 04:23:26;;;;;;;34.70;12.48;;;;;;;20.99;73.39;95087.50;5108503;28;20074;-73
2021/07/29 04:25:53;;;;;;;44.15;13.57;;;;;;;20.92;73.05;95097.66;5108124;28;20432;-73
2021/07/29 04:28:20;;;;;;;48.95;15.50;;;;;;;20.75;73.96;95098.22;5095405;28;20049;-73
2021/07/29 04:30:47;;;;;;;46.10;14.85;;;;;;;20.60;74.26;95096.56;5110597;27;20036;-74
2021/07/29 04:33:14;;;;;;;38.42;15.63;;;;;;;20.56;74.88;95084.97;5111634;27;20058;-74
2021/07/29 04:35:40;;;;;;;45.42;16.60;;;;;;;20.42;75.76;95088.34;5110408;27;20053;-73
2021/07/29 04:38:07;;;;;;;46.50;17.48;;;;;;;20.46;75.79;95098.34;5110366;27;20039;-73
2021/07/29 04:40:34;;;;;;;36.95;16.05;;;;;;;20.46;76.73;95095.72;5110094;28;20044;-73
2021/07/29 04:43:01;;;;;;;37.08;15.48;;;;;;;20.58;77.00;95093.41;5111859;27;20039;-74
2021/07/29 04:45:27;;;;;;;39.88;13.48;;;;;;;20.52;76.18;95094.56;5112741;27;20040;-71
2021/07/29 04:47:55;;;;;;;28.38;14.00;;;;;;;20.59;76.28;95094.97;5110825;27;20418;-74
2021/07/29 04:50:22;;;;;;;56.53;15.18;;;;;;;20.65;76.49;95101.78;5111407;27;20455;-73
2021/07/29 04:52:50;;;;;;;25.02;13.07;;;;;;;20.68;75.86;95100.44;5094261;27;20501;-73
2021/07/29 04:55:17;;;;;;;30.42;14.68;;;;;;;20.75;75.61;95100.88;5113089;27;20051;-73
2021/07/29 04:57:44;;;;;;;29.35;13.70;;;;;;;20.87;75.71;95100.41;5111608;27;20043;-74
2021/07/29 05:00:11;;;;;;;34.38;12.98;;;;;;;20.93;76.06;95096.59;5109455;27;20108;-74
2021/07/29 05:02:38;;;;;;;32.88;12.82;;;;;;;20.99;75.53;95087.50;5109963;28;20035;-74
2021/07/29 05:11:02;;;;;;;31.75;12.68;;;;;;;21.13;75.20;95112.16;5099102;27;20136;-74
2021/07/29 05:13:29;;;;;;;33.55;14.10;;;;;;;21.18;74.03;95104.13;5107313;28;20044;-74
2021/07/29 05:15:56;;;;;;;29.95;12.57;;;;;;;21.29;74.01;95111.91;5108011;28;20488;-74
2021/07/29 05:18:23;;;;;;;36.67;13.45;;;;;;;21.35;73.73;95110.72;5107733;28;20047;-74
2021/07/29 05:20:50;;;;;;;43.58;15.45;;;;;;;21.46;73.66;95109.47;5109525;28;20053;-75
2021/07/29 05:23:17;;;;;;;34.25;14.25;;;;;;;21.62;71.77;95114.50;5105520;28;20044;-75
2021/07/29 05:25:44;;;;;;;39.03;13.65;;;;;;;21.77;72.59;95106.28;5108864;28;20441;-74
2021/07/29 05:28:10;;;;;;;53.55;14.98;;;;;;;21.99;69.79;95118.06;5106971;28;20555;-74
2021/07/29 05:30:37;;;;;;;38.63;12.85;;;;;;;22.12;68.18;95111.94;5104992;28;20036;-73
2021/07/29 05:33:05;;;;;;;45.55;13.60;;;;;;;22.27;68.84;95114.31;5107648;28;20497;-74
2021/07/29 05:35:32;;;;;;;36.63;15.27;;;;;;;22.37;67.62;95117.84;5109569;28;20805;-74
2021/07/29 05:37:58;;;;;;;34.58;13.05;;;;;;;22.48;66.80;95108.56;5105149;28;20497;-74
2021/07/29 05:40:25;;;;;;;33.42;14.07;;;;;;;22.62;66.47;95109.28;5104438;28;20044;-74
2021/07/29 05:42:52;;;;;;;27.40;13.98;;;;;;;22.76;66.89;95111.09;5107720;28;20054;-74
2021/07/29 05:45:19;;;;;;;47.65;12.77;;;;;;;22.89;64.95;95099.66;5103176;28;20378;-74
2021/07/29 05:47:46;;;;;;;45.33;13.10;;;;;;;23.01;65.86;95113.19;5105047;28;20119;-71
2021/07/29 05:50:13;;;;;;;31.77;12.48;;;;;;;23.12;63.79;95111.09;5106132;28;20044;-71
2021/07/29 05:52:39;;;;;;;33.58;11.13;;;;;;;23.30;59.81;95117.28;5101979;28;20497;-71
2021/07/29 05:55:06;;;;;;;39.72;10.35;;;;;;;23.42;57.84;95122.78;5102667;28;20047;-71
2021/07/29 05:57:33;;;;;;;32.33;10.20;;;;;;;23.46;57.50;95109.69;5102634;28;20058;-72
2021/07/29 06:00:01;;;;;;;30.58;12.10;;;;;;;23.61;57.49;95116.50;5103645;28;20463;-72
2021/07/29 06:02:35;;;;;;;31.15;10.98;;;;;;;23.78;57.07;95121.06;5104988;28;22064;-72
2021/07/29 06:05:04;;;;;;;26.85;11.68;;;;;;;23.91;58.15;95120.19;5104126;28;20036;-72
2021/07/29 06:07:34;;;;;;;30.20;11.13;;;;;;;24.06;59.15;95121.66;5104363;28;20032;-72
2021/07/29 06:10:01;;;;;;;31.60;12.07;;;;;;;24.16;56.32;95120.59;5103251;28;20054;-72
2021/07/29 06:12:28;;;;;;;25.50;11.20;;;;;;;24.31;54.85;95127.34;5104630;28;20053;-72
2021/07/29 06:14:55;;;;;;;34.10;12.52;;;;;;;24.36;55.18;95133.31;5105591;28;20094;-72
2021/07/29 06:17:28;;;;;;;33.70;11.10;;;;;;;24.49;57.28;95128.94;5105082;28;20059;-72
2021/07/29 06:19:55;;;;;;;27.98;14.45;;;;;;;24.61;55.77;95137.13;5104250;28;20062;-72
2021/07/29 06:22:22;;;;;;;38.75;13.35;;;;;;;24.72;55.88;95128.81;5088725;28;21182;-73
2021/07/29 06:24:49;;;;;;;37.13;12.02;;;;;;;24.85;54.67;95135.88;5090470;28;20048;-72
2021/07/29 06:27:20;;;;;;;32.95;12.35;;;;;;;24.92;54.19;95140.72;5089136;28;20064;-72
2021/07/29 06:29:48;;;;;;;41.28;12.13;;;;;;;25.00;54.43;95142.59;5089611;28;20036;-72
2021/07/29 06:32:20;;;;;;;43.33;12.10;;;;;;;25.10;54.03;95152.94;5092821;28;20075;-72
2021/07/29 06:34:52;;;;;;;32.47;12.55;;;;;;;25.12;50.63;95144.59;5088617;28;20046;-72
2021/07/29 06:37:22;;;;;;;49.13;15.68;;;;;;;25.25;52.10;95138.34;5093173;28;20036;-72
2021/07/29 06:39:51;;;;;;;28.23;11.98;;;;;;;25.43;53.72;95149.00;5089262;28;20059;-72
2021/07/29 06:42:19;;;;;;;41.03;13.15;;;;;;;25.58;52.94;95143.13;5089996;28;20042;-72
2021/07/29 06:44:49;;;;;;;29.38;11.98;;;;;;;25.68;53.41;95139.34;5071683;28;20074;-72
2021/07/29 06:47:20;;;;;;;37.08;12.48;;;;;;;25.85;53.25;95149.94;5089452;28;20044;-72
2021/07/29 06:49:49;;;;;;;43.80;12.75;;;;;;;26.01;53.08;95150.19;5089238;28;20159;-72
2021/07/29 06:52:20;;;;;;;43.63;13.55;;;;;;;26.08;53.41;95147.81;5091360;28;20479;-72
2021/07/29 06:54:52;;;;;;;39.40;13.05;;;;;;;26.17;51.51;95141.66;5088332;28;20505;-72
2021/07/29 06:57:20;;;;;;;37.22;12.65;;;;;;;26.26;51.14;95135.16;5092179;28;20069;-73
2021/07/29 06:59:47;;;;;;;37.10;11.50;;;;;;;26.36;51.57;95133.97;5087814;28;20036;-73
2021/07/29 07:02:17;;;;;;;27.63;11.20;;;;;;;26.47;49.87;95129.84;5070761;28;20405;-74
2021/07/29 07:04:51;;;;;;;42.90;13.48;;;;;;;26.60;51.11;95122.69;5090127;28;20047;-74
2021/07/29 07:07:18;;;;;;;52.92;12.45;;;;;;;26.70;48.90;95118.84;5088013;28;20570;-73
2021/07/29 07:09:54;;;;;;;47.88;13.43;;;;;;;26.82;50.29;95121.59;5089805;28;20104;-73
2021/07/29 07:12:28;;;;;;;28.63;12.25;;;;;;;27.00;50.65;95124.09;5071183;28;20063;-74
2021/07/29 07:15:01;;;;;;;40.05;12.10;;;;;;;27.09;49.53;95114.13;5069852;28;20048;-74
2021/07/29 07:17:28;;;;;;;50.90;14.00;;;;;;;27.29;46.69;95117.88;5089475;28;20486;-74
2021/07/29 07:20:01;;;;;;;34.35;14.70;;;;;;;27.37;49.23;95102.84;5069084;28;20040;-74
2021/07/29 07:22:29;;;;;;;;;;;;;;;27.54;50.64;95110.69;5087910;28;20036;-74
2021/07/29 07:24:57;;;;;;;45.88;12.98;;;;;;;27.57;46.92;95107.34;5087685;28;20416;-73
2021/07/29 07:27:23;;;;;;;36.88;12.80;;;;;;;27.70;45.60;95110.81;5087678;28;20111;-73
2021/07/29 07:29:50;;;;;;;40.28;12.13;;;;;;;27.90;44.46;95114.53;5087490;28;20044;-73
2021/07/29 07:32:17;;;;;;;45.05;13.88;;;;;;;28.07;44.89;95112.72;5087508;28;20115;-76
2021/07/29 07:34:46;;;;;;;40.08;13.63;;;;;;;28.25;41.84;95124.75;5085401;28;20465;-72
2021/07/29 07:37:19;;;;;;;33.05;12.60;;;;;;;28.34;41.89;95122.75;5087665;28;20123;-74
2021/07/29 07:39:48;;;;;;;29.52;12.95;;;;;;;28.47;41.67;95125.38;5068675;28;20059;-74
2021/07/29 07:42:19;;;;;;;38.00;12.57;;;;;;;28.66;43.36;95130.94;5087239;28;20040;-74
2021/07/29 07:44:57;;;;;;;42.75;14.32;;;;;;;28.75;43.26;95134.28;5087595;28;20048;-74
2021/07/29 07:47:29;;;;;;;41.28;13.10;;;;;;;28.83;41.94;95127.22;5086320;28;20097;-72
2021/07/29 07:49:58;;;;;;;42.78;11.68;;;;;;;28.93;41.42;95125.97;5086926;28;20386;-73
2021/07/29 07:52:48;;;;;;;39.60;12.32;;;;;;;29.01;41.19;95111.63;5087207;28;20136;-73
2021/07/29 07:55:18;;;;;;;38.95;12.65;;;;;;;29.22;44.46;95113.34;5088734;28;20038;-73
2021/07/29 07:57:48;;;;;;;42.58;12.90;;;;;;;29.37;39.91;95112.59;5085505;28;20050;-73
2021/07/29 08:00:19;;;;;;;36.90;11.75;;;;;;;29.39;38.68;95115.72;5086040;28;20055;-73
2021/07/29 08:02:49;;;;;;;39.55;12.88;;;;;;;29.53;40.53;95110.69;5086305;28;20052;-73
2021/07/29 08:05:19;;;;;;;40.70;11.75;;;;;;;29.75;38.88;95111.25;5068446;28;20501;-73
2021/07/29 08:07:47;;;;;;;36.60;12.13;;;;;;;29.97;38.26;95119.81;5087129;28;20040;-73
2021/07/29 08:10:16;;;;;;;30.20;11.50;;;;;;;30.12;37.84;95119.00;5085376;28;20159;-73
2021/07/29 08:12:49;;;;;;;34.75;12.10;;;;;;;30.33;37.33;95112.56;5085570;28;20048;-73
2021/07/29 08:15:17;;;;;;;32.50;11.35;;;;;;;30.49;36.96;95105.25;5087154;28;20040;-73
2021/07/29 08:17:45;;;;;;;28.55;11.68;;;;;;;30.60;35.35;95095.50;5067968;28;20437;-71
2021/07/29 08:20:12;;;;;;;39.80;11.30;;;;;;;30.86;34.21;95102.13;5086731;28;20494;-73
2021/07/29 08:22:41;;;;;;;30.13;9.57;;;;;;;31.01;34.98;95098.63;5068968;28;20581;-73
2021/07/29 08:25:09;;;;;;;30.80;11.48;;;;;;;31.18;35.21;95097.38;5068215;28;20044;-73
2021/07/29 08:27:36;;;;;;;29.15;10.48;;;;;;;31.34;35.73;95097.28;5086518;28;20594;-73
2021/07/29 08:30:03;;;;;;;30.23;11.15;;;;;;;31.30;34.81;95099.16;5086751;28;20040;-73
2021/07/29 08:32:30;;;;;;;39.38;12.80;;;;;;;31.38;34.34;95095.44;5085451;28;20052;-74
2021/07/29 08:34:58;;;;;;;42.22;11.75;;;;;;;31.32;36.00;95091.50;5085323;28;20425;-73
2021/07/29 08:37:25;;;;;;;34.50;11.45;;;;;;;31.40;34.51;95090.50;5088107;28;20038;-74
2021/07/29 08:39:54;;;;;;;35.20;10.55;;;;;;;31.64;34.05;95085.91;5086255;28;20039;-74
2021/07/29 08:42:21;;;;;;;38.42;10.98;;;;;;;31.90;32.19;95087.06;5081820;28;20035;-74
2021/07/29 08:44:47;;;;;;;26.58;9.02;;;;;;;32.03;31.64;95074.94;5084210;28;20046;-74
2021/07/29 08:47:22;;;;;;;36.08;10.13;;;;;;;32.43;28.62;95092.47;5084618;28;20056;-74
2021/07/29 08:50:07;;;;;;;36.53;11.05;;;;;;;32.71;30.87;95086.66;5083340;28;20040;-73
2021/07/29 08:52:37;;;;;;;31.60;10.40;;;;;;;32.91;30.45;95079.19;5085728;28;20130;-75
2021/07/29 08:55:04;;;;;;;27.70;9.80;;;;;;;33.24;30.28;95091.13;5083164;28;20054;-75
2021/07/29 08:57:32;;;;;;;49.50;10.57;;;;;;;33.36;30.36;95081.97;5085589;28;20536;-74
2021/07/29 09:00:03;;;;;;;36.10;11.32;;;;;;;33.67;29.94;95085.34;5083279;28;20093;-74
2021/07/29 09:02:30;;;;;;;35.78;10.30;;;;;;;33.84;29.26;95092.06;5085747;28;20059;-74
2021/07/29 09:05:09;;;;;;;29.13;9.98;;;;;;;33.91;30.45;95084.00;5082177;28;20097;-74
2021/07/29 09:07:37;;;;;;;38.90;11.07;;;;;;;34.03;30.35;95081.00;5083565;28;20059;-74
2021/07/29 09:10:24;;;;;;;29.98;10.75;;;;;;;34.33;28.37;95082.72;5082967;28;20044;-74
2021/07/29 09:13:11;;;;;;;40.00;11.15;;;;;;;34.47;28.66;95077.41;5083630;28;20076;-74
2021/07/29 09:15:39;;;;;;;35.55;10.15;;;;;;;34.17;28.58;95080.28;5085678;28;20184;-75
2021/07/29 09:18:06;;;;;;;45.60;11.43;;;;;;;34.33;28.73;95077.31;5085270;28;20056;-75
2021/07/29 09:20:35;;;;;;;40.67;11.30;;;;;;;34.68;27.56;95081.31;5085795;28;20032;-74
2021/07/29 09:23:21;;;;;;;48.17;11.02;;;;;;;34.90;26.60;95076.03;5065663;28;20428;-74
2021/07/29 09:26:01;;;;;;;37.03;10.63;;;;;;;34.89;24.88;95075.25;5087372;28;20052;-74
2021/07/29 09:28:40;;;;;;;37.10;10.40;;;;;;;34.90;25.03;95082.22;5084571;28;20539;-75
2021/07/29 09:31:22;;;;;;;34.38;10.02;;;;;;;34.95;24.56;95078.34;5084662;28;20036;-74
2021/07/29 09:34:01;;;;;;;30.60;8.77;;;;;;;34.97;26.09;95073.34;5084819;28;20498;-74
2021/07/29 09:36:32;;;;;;;39.30;9.77;;;;;;;35.12;25.95;95077.63;5085493;28;20040;-75
2021/07/29 09:39:22;;;;;;;30.63;9.15;;;;;;;35.43;24.48;95064.56;5084298;28;20047;-73
2021/07/29 09:41:51;;;;;;;39.33;11.15;;;;;;;35.47;26.24;95057.19;5081266;28;20034;-75
2021/07/29 09:44:38;;;;;;;31.50;8.75;;;;;;;35.41;23.96;95061.47;5066349;28;20052;-74
2021/07/29 09:47:05;;;;;;;33.38;8.18;;;;;;;35.63;24.32;95062.22;5084748;28;20044;-73
2021/07/29 09:49:34;;;;;;;41.25;10.45;;;;;;;35.77;23.40;95066.91;5086098;28;20127;-73
2021/07/29 09:52:02;;;;;;;28.48;9.68;;;;;;;35.81;22.56;95061.50;5065621;28;20127;-74
2021/07/29 09:54:29;;;;;;;40.15;9.25;;;;;;;36.05;23.51;95059.88;5086007;28;20062;-74
2021/07/29 09:56:56;;;;;;;28.98;9.98;;;;;;;36.36;24.14;95058.31;5085277;28;20055;-74
2021/07/29 09:59:23;;;;;;;29.38;9.05;;;;;;;36.73;22.33;95062.44;5088127;28;20515;-75
2021/07/29 10:01:51;;;;;;;31.42;9.95;;;;;;;36.84;23.25;95051.53;5088424;28;20062;-74
2021/07/29 10:04:25;;;;;;;32.80;9.30;;;;;;;37.12;23.32;95059.50;5086200;28;20394;-74
2021/07/29 10:06:55;;;;;;;33.85;8.75;;;;;;;37.34;22.38;95055.91;5089073;28;20114;-74
2021/07/29 10:09:22;;;;;;;28.52;8.93;;;;;;;36.86;21.76;95046.47;5089180;28;20058;-74
2021/07/29 10:11:52;;;;;;;35.55;7.90;;;;;;;36.85;22.18;95053.09;5086329;28;20048;-73
2021/07/29 10:14:44;;;;;;;34.67;8.70;;;;;;;37.18;22.88;95051.75;5065933;28;20059;-74
2021/07/29 10:17:14;;;;;;;30.55;8.38;;;;;;;37.34;21.23;95037.66;5088377;28;20060;-74
2021/07/29 10:20:15;;;;;;;30.52;7.72;;;;;;;37.58;21.01;95051.44;5088725;28;20799;-73
2021/07/29 10:22:47;;;;;;;29.80;8.38;;;;;;;37.97;22.88;95044.94;5049899;28;20417;-74
2021/07/29 10:25:14;;;;;;;38.92;8.95;;;;;;;37.91;21.57;95046.56;5093369;28;20036;-74
2021/07/29 10:28:19;;;;;;;33.28;9.90;;;;;;;38.30;21.34;95037.97;5092861;28;20577;-74
2021/07/29 10:30:53;;;;;;;33.22;9.10;;;;;;;38.50;20.57;95043.59;5087550;28;20575;-74
2021/07/29 10:33:23;;;;;;;33.00;9.57;;;;;;;38.65;20.51;95046.19;5070557;28;20047;-74
2021/07/29 10:35:53;;;;;;;36.83;9.02;;;;;;;38.85;19.05;95044.34;5089159;28;20044;-74
2021/07/29 10:38:42;;;;;;;34.13;8.90;;;;;;;39.22;21.92;95042.69;5088883;28;20036;-74
2021/07/29 10:41:09;;;;;;;37.72;9.18;;;;;;;39.49;20.22;95033.72;5070619;28;20040;-75
2021/07/29 10:43:38;;;;;;;33.42;8.80;;;;;;;39.57;20.36;95040.59;5088151;28;20047;-74
2021/07/29 10:46:05;;;;;;;32.60;10.93;;;;;;;39.48;21.36;95030.25;5088997;28;20048;-75
2021/07/29 10:48:43;;;;;;;32.20;8.68;;;;;;;39.36;18.95;95039.75;5088969;28;20054;-74
2021/07/29 10:51:22;;;;;;;33.83;8.85;;;;;;;39.63;18.97;95030.00;5088695;28;20032;-74
2021/07/29 10:53:50;;;;;;;31.40;9.00;;;;;;;39.70;18.62;95021.69;5090074;28;20040;-74
2021/07/29 10:56:20;;;;;;;31.35;7.72;;;;;;;39.74;18.46;95023.19;5089095;28;20036;-74
2021/07/29 10:58:48;;;;;;;41.67;9.70;;;;;;;39.83;18.28;95024.59;5089159;28;20114;-74
2021/07/29 11:01:16;;;;;;;37.40;9.57;;;;;;;39.26;18.29;95024.34;5088638;28;20497;-74
2021/07/29 11:03:49;;;;;;;38.65;8.13;;;;;;;39.48;17.68;95016.63;5088751;28;20494;-75
2021/07/29 11:06:22;;;;;;;;;;;;;;;39.82;17.30;95023.06;5089341;28;20501;-75
2021/07/29 11:08:51;;;;;;;34.55;8.38;;;;;;;39.91;17.87;95006.97;5088298;28;19920;-75
2021/07/29 11:11:18;;;;;;;29.70;8.70;;;;;;;40.04;17.07;95010.59;5087289;28;20040;-75
2021/07/29 11:13:46;;;;;;;37.28;8.95;;;;;;;40.03;16.80;95014.53;5088326;28;20044;-74
2021/07/29 11:16:15;;;;;;;36.75;8.88;;;;;;;40.31;17.48;95013.19;5088590;28;20046;-75
2021/07/29 11:18:56;;;;;;;27.05;7.78;;;;;;;40.43;15.60;95011.06;5088155;28;20111;-75
2021/07/29 11:21:23;;;;;;;34.50;9.57;;;;;;;40.16;14.89;95014.66;5087763;28;20410;-75
2021/07/29 11:23:50;;;;;;;28.88;7.95;;;;;;;40.23;15.07;95008.28;5088090;28;20062;-75
2021/07/29 11:26:17;;;;;;;46.58;9.23;;;;;;;40.37;15.08;95005.31;5088106;28;22708;-75
2021/07/29 11:28:44;;;;;;;33.47;7.38;;;;;;;40.53;16.70;94998.38;5088349;28;20061;-75
2021/07/29 11:31:18;;;;;;;41.95;8.90;;;;;;;40.85;15.65;94993.00;5087920;28;20036;-75
2021/07/29 11:33:48;;;;;;;24.73;7.68;;;;;;;41.40;16.03;94993.31;5088185;28;20036;-75
2021/07/29 11:36:16;;;;;;;43.15;7.90;;;;;;;41.42;17.32;94992.91;5088085;28;20040;-75